Time;durP1;ratioP1;P1;durP2;ratioP2;P2;SDS_P1;SDS_P2;PMS_P1;PMS_P2;Temp;Humidity;BMP_temperature;BMP_pressure;BME280_temperature;BME280_humidity;BME280_pressure;Samples;Min_cycle;Max_cycle;Signal;HPM_P1;HPM_P2
2023/01/08 00:01:09;;;;;;;16.65;9.50;;;3.70;70.90;;;;;;5044728;28;20037;-63
2023/01/08 00:03:36;;;;;;;19.65;11.10;;;3.70;71.10;;;;;;5044242;28;20029;-63
2023/01/08 00:06:03;;;;;;;21.23;12.18;;;3.60;71.00;;;;;;5053636;28;20025;-62
2023/01/08 00:08:30;;;;;;;24.33;11.88;;;3.60;71.10;;;;;;5046113;28;20039;-64
2023/01/08 00:10:56;;;;;;;19.17;11.23;;;3.90;71.40;;;;;;5043907;28;20018;-63
2023/01/08 00:13:22;;;;;;;25.95;12.45;;;3.70;71.30;;;;;;5044994;28;20037;-63
2023/01/08 00:15:48;;;;;;;24.75;12.77;;;3.60;71.40;;;;;;5040646;28;20040;-62
2023/01/08 00:18:13;;;;;;;23.17;13.10;;;3.60;71.30;;;;;;5045825;28;20024;-62
2023/01/08 00:20:43;;;;;;;30.40;14.98;;;3.60;71.40;;;;;;5042865;28;20037;-63
2023/01/08 00:23:17;;;;;;;26.17;13.90;;;3.60;71.50;;;;;;5048833;28;20038;-62
2023/01/08 00:25:43;;;;;;;30.55;11.93;;;3.90;71.90;;;;;;5043548;28;20029;-63
2023/01/08 00:28:08;;;;;;;26.92;14.15;;;3.60;71.60;;;;;;5046646;28;20040;-63
2023/01/08 00:30:35;;;;;;;36.20;14.60;;;3.60;71.70;;;;;;5042324;28;20364;-62
2023/01/08 00:33:01;;;;;;;31.83;14.32;;;3.50;71.60;;;;;;5045616;28;20084;-63
2023/01/08 00:35:26;;;;;;;34.60;14.63;;;3.50;71.70;;;;;;5052131;28;20059;-64
2023/01/08 00:37:52;;;;;;;36.95;13.73;;;3.50;71.90;;;;;;5048083;28;20030;-63
2023/01/08 00:40:18;;;;;;;41.45;13.63;;;3.70;72.00;;;;;;5046492;28;20029;-63
2023/01/08 00:42:44;;;;;;;33.30;13.48;;;3.50;71.90;;;;;;5043184;28;20060;-63
2023/01/08 00:45:10;;;;;;;46.92;15.77;;;3.50;71.90;;;;;;5050615;28;20025;-64
2023/01/08 00:47:35;;;;;;;25.98;12.52;;;3.50;71.90;;;;;;5049996;28;20021;-63
2023/01/08 00:50:01;;;;;;;28.02;13.43;;;3.50;71.90;;;;;;5048506;28;20025;-63
2023/01/08 00:52:27;;;;;;;37.47;12.93;;;3.40;71.90;;;;;;5044340;28;20481;-63
2023/01/08 00:54:53;;;;;;;42.17;13.82;;;3.50;71.90;;;;;;5045587;28;20092;-63
2023/01/08 00:57:18;;;;;;;44.05;13.88;;;3.40;71.90;;;;;;5043818;28;20053;-63
2023/01/08 00:59:44;;;;;;;29.75;13.80;;;3.40;72.00;;;;;;5047029;28;20048;-63
2023/01/08 01:02:10;;;;;;;29.08;13.52;;;3.40;72.10;;;;;;5051739;28;20044;-63
2023/01/08 01:04:35;;;;;;;36.20;13.52;;;3.40;72.00;;;;;;5053040;28;20072;-63
2023/01/08 01:07:02;;;;;;;32.70;12.88;;;3.40;71.90;;;;;;5058776;28;20028;-63
2023/01/08 01:09:28;;;;;;;25.98;11.98;;;3.40;72.00;;;;;;5050392;28;20032;-63
2023/01/08 01:11:54;;;;;;;26.92;12.77;;;3.40;72.00;;;;;;5040990;28;20032;-63
2023/01/08 01:14:20;;;;;;;34.00;12.75;;;3.40;72.10;;;;;;5049552;28;20030;-64
2023/01/08 01:16:47;;;;;;;35.45;12.43;;;3.30;72.10;;;;;;5055848;28;20029;-63
2023/01/08 01:19:13;;;;;;;27.15;11.82;;;3.30;72.10;;;;;;5046939;28;20032;-63
2023/01/08 01:21:39;;;;;;;28.05;11.23;;;3.40;72.20;;;;;;5065154;28;20055;-63
2023/01/08 01:24:05;;;;;;;29.60;11.88;;;3.30;72.30;;;;;;5039797;28;20034;-63
2023/01/08 01:26:32;;;;;;;24.33;12.02;;;3.30;72.30;;;;;;5040131;28;20151;-64
2023/01/08 01:28:58;;;;;;;29.63;11.77;;;3.30;72.30;;;;;;5064998;28;20113;-63
2023/01/08 01:31:26;;;;;;;30.90;12.77;;;3.40;72.50;;;;;;5044746;28;20038;-63
2023/01/08 01:33:51;;;;;;;30.63;13.00;;;3.40;72.60;;;;;;5048146;28;20096;-63
2023/01/08 01:36:19;;;;;;;22.05;12.68;;;3.40;72.80;;;;;;5048126;28;20017;-61
2023/01/08 01:38:47;;;;;;;36.08;12.00;;;3.40;72.80;;;;;;5048750;28;20039;-63
2023/01/08 01:41:31;;;;;;;33.03;11.27;;;3.40;72.80;;;;;;5041130;28;20026;-63
2023/01/08 01:44:20;;;;;;;20.30;8.50;;;3.40;72.90;;;;;;5047569;28;20025;-63
2023/01/08 01:46:47;;;;;;;25.33;11.55;;;3.40;72.70;;;;;;5049910;28;20044;-63
2023/01/08 01:49:20;;;;;;;32.45;11.30;;;3.40;72.60;;;;;;5036764;28;20030;-62
2023/01/08 01:51:54;;;;;;;30.50;11.98;;;3.50;72.90;;;;;;5051982;28;20079;-62
2023/01/08 01:54:20;;;;;;;37.25;11.52;;;3.50;73.00;;;;;;5038461;28;20087;-62
2023/01/08 01:56:47;;;;;;;32.25;12.43;;;3.50;72.90;;;;;;5048642;28;20057;-64
2023/01/08 01:59:12;;;;;;;36.53;12.13;;;3.50;72.80;;;;;;5050465;28;20135;-63
2023/01/08 02:01:40;;;;;;;45.28;13.32;;;3.50;72.70;;;;;;5041639;28;20022;-62
2023/01/08 02:04:07;;;;;;;42.78;12.93;;;3.50;73.50;;;;;;5049577;28;20033;-63
2023/01/08 02:06:45;;;;;;;30.33;13.27;;;3.60;72.90;;;;;;5054922;28;20511;-63
2023/01/08 02:09:22;;;;;;;36.88;12.57;;;3.50;73.10;;;;;;5046988;28;20067;-63
2023/01/08 02:14:53;;;;;;;34.08;13.68;;;3.60;73.00;;;;;;5043111;28;20036;-63
2023/01/08 02:17:28;;;;;;;48.85;15.05;;;3.60;73.40;;;;;;5044087;28;20422;-63
2023/01/08 02:20:01;;;;;;;37.17;12.30;;;3.60;73.20;;;;;;5049924;28;20025;-64
2023/01/08 02:22:47;;;;;;;49.25;11.32;;;3.60;73.10;;;;;;5051594;28;20059;-63
2023/01/08 02:25:40;;;;;;;37.13;10.57;;;3.60;73.30;;;;;;5057188;28;20018;-64
2023/01/08 02:28:11;;;;;;;34.33;9.85;;;3.60;73.10;;;;;;5067891;28;20045;-63
2023/01/08 02:30:37;;;;;;;40.47;11.75;;;3.60;73.00;;;;;;5045189;28;20102;-63
2023/01/08 02:33:03;;;;;;;36.42;10.13;;;3.60;72.90;;;;;;5051149;28;20065;-62
2023/01/08 02:35:47;;;;;;;27.15;10.93;;;3.60;72.90;;;;;;5045841;28;20030;-63
2023/01/08 02:38:14;;;;;;;36.10;7.53;;;3.70;73.30;;;;;;5050324;28;20041;-63
2023/01/08 02:40:46;;;;;;;44.25;10.43;;;3.70;73.10;;;;;;5046966;28;20037;-64
2023/01/08 02:43:21;;;;;;;41.30;10.20;;;3.70;73.10;;;;;;5039918;28;21699;-63
2023/01/08 02:45:54;;;;;;;23.92;10.10;;;3.70;73.10;;;;;;5054128;28;20072;-64
2023/01/08 02:48:34;;;;;;;26.77;9.93;;;3.70;73.00;;;;;;5052426;28;20060;-64
2023/01/08 02:51:22;;;;;;;30.77;11.30;;;3.70;73.10;;;;;;5047210;28;20480;-64
2023/01/08 02:53:53;;;;;;;19.75;10.35;;;3.70;73.30;;;;;;5041224;28;20033;-64
2023/01/08 02:56:23;;;;;;;34.63;10.48;;;3.70;73.00;;;;;;5057018;28;20093;-64
2023/01/08 02:58:51;;;;;;;23.30;11.10;;;3.70;73.10;;;;;;5044208;28;20038;-63
2023/01/08 03:01:21;;;;;;;42.83;12.05;;;3.70;73.20;;;;;;5045418;28;20021;-64
2023/01/08 03:03:51;;;;;;;47.20;10.93;;;3.70;73.30;;;;;;5045375;28;20025;-64
2023/01/08 03:06:18;;;;;;;38.15;11.13;;;3.70;73.20;;;;;;5049657;28;20059;-63
2023/01/08 03:08:47;;;;;;;38.38;10.50;;;3.80;73.30;;;;;;5052843;28;20081;-63
2023/01/08 03:11:16;;;;;;;49.55;11.50;;;3.80;73.30;;;;;;5044654;28;20035;-63
2023/01/08 03:13:55;;;;;;;47.33;12.20;;;3.80;73.40;;;;;;5049940;28;20055;-63
2023/01/08 03:16:30;;;;;;;28.75;11.07;;;3.80;73.50;;;;;;5046554;28;20026;-63
2023/01/08 03:19:11;;;;;;;37.50;12.05;;;3.80;73.30;;;;;;5042660;28;20025;-63
2023/01/08 03:21:38;;;;;;;39.80;12.27;;;3.80;73.60;;;;;;5054438;28;20055;-63
2023/01/08 03:24:05;;;;;;;25.20;12.30;;;3.80;74.00;;;;;;5043614;28;20021;-63
2023/01/08 03:26:33;;;;;;;34.38;13.60;;;3.80;73.40;;;;;;5044008;28;20037;-64
2023/01/08 03:29:00;;;;;;;41.63;13.27;;;3.80;73.50;;;;;;5044980;28;20021;-64
2023/01/08 03:31:27;;;;;;;32.30;12.98;;;3.80;73.50;;;;;;5044905;28;20090;-63
2023/01/08 03:33:54;;;;;;;31.08;14.63;;;3.90;73.50;;;;;;5045013;28;20026;-63
2023/01/08 03:36:26;;;;;;;25.88;12.90;;;3.90;73.80;;;;;;5045822;28;20073;-63
2023/01/08 03:39:14;;;;;;;32.13;12.82;;;3.90;73.80;;;;;;5046101;28;20060;-64
2023/01/08 03:41:40;;;;;;;34.20;12.63;;;3.90;74.10;;;;;;5049434;28;20033;-63
2023/01/08 03:44:06;;;;;;;26.65;12.73;;;4.00;73.80;;;;;;5051619;28;20049;-64
2023/01/08 03:46:34;;;;;;;31.88;11.98;;;4.00;73.80;;;;;;5040678;28;20039;-63
2023/01/08 03:49:02;;;;;;;25.35;12.30;;;4.00;73.90;;;;;;5048157;28;20029;-63
2023/01/08 03:51:28;;;;;;;24.55;13.10;;;4.00;73.90;;;;;;5049269;28;20036;-63
2023/01/08 03:53:57;;;;;;;31.70;13.25;;;4.00;74.00;;;;;;5054510;28;20025;-63
2023/01/08 03:56:23;;;;;;;20.45;12.27;;;4.00;74.10;;;;;;5044921;28;20089;-63
2023/01/08 03:58:49;;;;;;;27.77;13.00;;;4.10;74.10;;;;;;5048130;28;20021;-64
2023/01/08 04:01:16;;;;;;;22.17;11.70;;;4.10;74.10;;;;;;5048854;28;20040;-63
2023/01/08 04:03:41;;;;;;;23.38;12.52;;;4.10;73.90;;;;;;5048681;28;20033;-63
2023/01/08 04:06:07;;;;;;;21.60;11.55;;;4.20;73.90;;;;;;5039698;28;20033;-64
2023/01/08 04:08:32;;;;;;;24.63;11.55;;;4.10;73.70;;;;;;5051107;28;20025;-63
2023/01/08 04:10:58;;;;;;;29.75;11.43;;;4.20;73.70;;;;;;5045286;28;20041;-63
2023/01/08 04:13:23;;;;;;;15.43;9.77;;;4.20;73.60;;;;;;5034335;28;20103;-63
2023/01/08 04:15:50;;;;;;;26.25;11.40;;;4.20;73.60;;;;;;5049258;28;20020;-63
2023/01/08 04:18:17;;;;;;;23.45;11.10;;;4.20;73.50;;;;;;5046155;28;20543;-63
2023/01/08 04:20:47;;;;;;;17.70;11.13;;;4.20;73.60;;;;;;5048925;28;20040;-64
2023/01/08 04:23:13;;;;;;;23.27;11.10;;;4.20;73.60;;;;;;5038003;28;20029;-63
2023/01/08 04:25:39;;;;;;;25.20;11.35;;;4.20;73.50;;;;;;5052894;28;20029;-63
2023/01/08 04:28:04;;;;;;;20.05;11.75;;;4.20;73.50;;;;;;5051420;28;20064;-63
2023/01/08 04:30:30;;;;;;;18.95;11.02;;;4.20;73.60;;;;;;5042709;28;20045;-63
2023/01/08 04:32:56;;;;;;;19.75;10.43;;;4.20;73.60;;;;;;5045361;28;20045;-64
2023/01/08 04:35:21;;;;;;;21.77;10.63;;;4.20;73.60;;;;;;5048106;28;20021;-63
2023/01/08 04:37:47;;;;;;;32.78;12.10;;;4.20;73.60;;;;;;5043937;28;20501;-63
2023/01/08 04:40:13;;;;;;;18.92;11.48;;;4.30;73.70;;;;;;5054092;28;20033;-63
2023/01/08 04:42:38;;;;;;;17.90;11.18;;;4.30;73.70;;;;;;5048157;28;20032;-63
2023/01/08 04:45:06;;;;;;;18.58;11.25;;;4.30;73.70;;;;;;5048021;28;20033;-63
2023/01/08 04:47:32;;;;;;;16.35;10.88;;;4.30;73.70;;;;;;5047314;28;20025;-63
2023/01/08 04:49:57;;;;;;;15.98;10.40;;;4.30;73.70;;;;;;5056455;28;20056;-63
2023/01/08 04:52:23;;;;;;;20.08;11.55;;;4.30;73.70;;;;;;5045793;28;20064;-63
2023/01/08 04:54:48;;;;;;;19.02;11.13;;;4.30;73.70;;;;;;5048816;28;20032;-63
2023/01/08 04:57:14;;;;;;;18.15;11.57;;;4.40;73.80;;;;;;5040560;28;20072;-63
2023/01/08 04:59:40;;;;;;;18.15;11.35;;;4.40;73.70;;;;;;5046198;28;20368;-64
2023/01/08 05:02:05;;;;;;;16.20;10.20;;;4.40;73.60;;;;;;5044805;28;20028;-63
2023/01/08 05:04:31;;;;;;;19.15;11.65;;;4.40;73.60;;;;;;5042691;28;20030;-63
2023/01/08 05:06:56;;;;;;;17.95;11.55;;;4.40;73.60;;;;;;5041013;28;20021;-63
2023/01/08 05:09:22;;;;;;;19.95;12.20;;;4.40;73.60;;;;;;5042611;28;20033;-63
2023/01/08 05:11:48;;;;;;;21.40;12.32;;;4.50;73.70;;;;;;5054246;28;20084;-63
2023/01/08 05:14:13;;;;;;;20.10;11.82;;;4.50;73.60;;;;;;5044820;28;20051;-63
2023/01/08 05:16:39;;;;;;;19.75;12.18;;;4.50;73.60;;;;;;5054470;28;20033;-63
2023/01/08 05:19:05;;;;;;;19.30;11.82;;;4.50;73.60;;;;;;5039442;28;20051;-63
2023/01/08 05:21:30;;;;;;;20.70;11.95;;;4.50;73.60;;;;;;5044040;28;20370;-64
2023/01/08 05:23:56;;;;;;;21.33;12.20;;;4.60;73.50;;;;;;5042207;28;20089;-63
2023/01/08 05:26:21;;;;;;;19.33;11.93;;;4.60;73.50;;;;;;5042528;28;20384;-63
2023/01/08 05:28:47;;;;;;;21.05;12.63;;;4.60;73.50;;;;;;5040753;28;20026;-63
2023/01/08 05:31:13;;;;;;;20.67;12.52;;;4.60;73.40;;;;;;5049896;28;20059;-63
2023/01/08 05:33:39;;;;;;;20.67;12.88;;;4.60;73.40;;;;;;5050124;28;20075;-63
2023/01/08 05:36:10;;;;;;;21.00;12.45;;;4.60;73.40;;;;;;5051502;28;20080;-63
2023/01/08 05:38:36;;;;;;;19.08;12.52;;;4.60;73.40;;;;;;5039635;28;20048;-64
2023/01/08 05:41:01;;;;;;;18.77;11.75;;;4.60;73.40;;;;;;5045703;28;20384;-63
2023/01/08 05:43:28;;;;;;;21.48;12.77;;;4.60;73.40;;;;;;5041529;28;20052;-63
2023/01/08 05:45:57;;;;;;;23.63;12.63;;;4.70;73.50;;;;;;5055401;28;20067;-63
2023/01/08 05:48:23;;;;;;;19.42;12.38;;;4.70;73.50;;;;;;5042935;28;20025;-64
2023/01/08 05:50:49;;;;;;;20.95;12.48;;;4.70;73.50;;;;;;5063276;28;20036;-63
2023/01/08 05:53:14;;;;;;;20.27;12.13;;;4.70;73.50;;;;;;5047012;28;20045;-63
2023/01/08 05:55:40;;;;;;;20.85;12.68;;;4.70;73.50;;;;;;5048297;28;20380;-63
2023/01/08 05:58:06;;;;;;;22.42;12.05;;;4.70;73.40;;;;;;5047322;28;20026;-63
2023/01/08 06:00:33;;;;;;;21.75;12.82;;;4.70;73.40;;;;;;5058329;28;20025;-62
2023/01/08 06:02:58;;;;;;;20.35;12.50;;;4.80;73.40;;;;;;5043311;28;20053;-64
2023/01/08 06:05:24;;;;;;;20.33;12.68;;;4.80;73.50;;;;;;5051581;28;20047;-64
2023/01/08 06:07:50;;;;;;;19.75;12.95;;;4.80;73.40;;;;;;5047551;28;20029;-63
2023/01/08 06:10:15;;;;;;;20.42;12.05;;;4.80;73.40;;;;;;5046768;28;20033;-64
2023/01/08 06:12:41;;;;;;;20.52;12.75;;;4.80;73.40;;;;;;5047114;28;20033;-63
2023/01/08 06:15:08;;;;;;;21.40;12.82;;;4.80;73.50;;;;;;5037451;28;20045;-63
2023/01/08 06:17:34;;;;;;;21.45;13.75;;;4.80;73.50;;;;;;5051833;28;20037;-63
2023/01/08 06:20:00;;;;;;;20.88;12.63;;;4.90;73.50;;;;;;4944417;28;20358;-64
2023/01/08 06:22:26;;;;;;;22.95;12.73;;;4.90;73.50;;;;;;5058705;28;20033;-64
2023/01/08 06:24:52;;;;;;;22.73;13.73;;;4.90;73.50;;;;;;5047173;28;20050;-64
2023/01/08 06:27:18;;;;;;;19.75;13.45;;;4.90;73.40;;;;;;5048195;28;20084;-64
2023/01/08 06:29:43;;;;;;;29.27;17.20;;;4.90;73.40;;;;;;5047269;28;20037;-64
2023/01/08 06:32:09;;;;;;;31.88;17.67;;;4.90;73.40;;;;;;5058946;28;20063;-64
2023/01/08 06:34:35;;;;;;;31.48;18.33;;;4.90;73.40;;;;;;5053538;28;20344;-64
2023/01/08 06:37:00;;;;;;;31.33;18.75;;;4.90;73.30;;;;;;5045223;28;20018;-64
2023/01/08 06:39:26;;;;;;;31.58;18.23;;;4.90;73.30;;;;;;5039471;28;20029;-64
2023/01/08 06:41:52;;;;;;;23.08;14.60;;;4.90;73.30;;;;;;5037179;28;20036;-64
2023/01/08 06:44:17;;;;;;;22.02;13.18;;;4.90;73.30;;;;;;5043951;28;20084;-64
2023/01/08 06:46:43;;;;;;;24.00;12.75;;;4.90;73.30;;;;;;5045876;28;20078;-63
2023/01/08 06:49:09;;;;;;;19.25;11.52;;;4.90;73.20;;;;;;5051387;28;20075;-63
2023/01/08 06:51:35;;;;;;;17.85;12.00;;;5.00;73.20;;;;;;5054516;28;20416;-63
2023/01/08 06:54:01;;;;;;;18.70;11.70;;;4.90;72.90;;;;;;5042054;28;20052;-64
2023/01/08 06:56:27;;;;;;;20.67;12.18;;;4.90;72.90;;;;;;5052833;28;20134;-64
2023/01/08 06:58:53;;;;;;;20.55;12.48;;;4.90;72.90;;;;;;5045197;28;20041;-64
2023/01/08 07:01:18;;;;;;;19.52;11.95;;;4.90;73.00;;;;;;5038874;28;20036;-64
2023/01/08 07:03:44;;;;;;;19.00;12.13;;;4.90;73.10;;;;;;5046857;28;20026;-64
2023/01/08 07:06:18;;;;;;;17.88;11.80;;;4.90;73.20;;;;;;5052993;28;20025;-64
2023/01/08 07:08:44;;;;;;;18.67;12.18;;;4.80;73.30;;;;;;5047391;28;20174;-64
2023/01/08 07:11:10;;;;;;;17.17;11.65;;;4.80;73.20;;;;;;5046117;28;20036;-64
2023/01/08 07:13:36;;;;;;;16.55;11.13;;;4.80;73.20;;;;;;5049459;28;20041;-63
2023/01/08 07:16:09;;;;;;;21.77;12.20;;;4.80;73.20;;;;;;5044887;28;20048;-64
2023/01/08 07:18:35;;;;;;;17.10;11.95;;;4.80;73.30;;;;;;5047372;28;20037;-64
2023/01/08 07:21:02;;;;;;;22.77;13.38;;;4.80;73.20;;;;;;5047289;28;20113;-64
2023/01/08 07:23:28;;;;;;;26.75;13.10;;;4.80;73.20;;;;;;5051158;28;20044;-64
2023/01/08 07:25:53;;;;;;;19.17;12.45;;;4.80;73.40;;;;;;5052486;28;20018;-64
2023/01/08 07:28:19;;;;;;;20.52;12.80;;;4.90;73.50;;;;;;5036155;28;20503;-64
2023/01/08 07:30:45;;;;;;;18.27;11.48;;;4.90;73.50;;;;;;5042341;28;20667;-64
2023/01/08 07:33:10;;;;;;;18.38;11.10;;;4.90;73.60;;;;;;5041433;28;20040;-64
2023/01/08 07:35:37;;;;;;;19.73;10.68;;;4.90;73.60;;;;;;5043966;28;20055;-64
2023/01/08 07:38:04;;;;;;;17.65;11.82;;;4.90;73.60;;;;;;5051380;28;20024;-64
2023/01/08 07:40:30;;;;;;;18.92;11.68;;;4.90;73.60;;;;;;5041075;28;20052;-64
2023/01/08 07:43:01;;;;;;;17.40;11.32;;;5.00;73.60;;;;;;5063940;28;20047;-64
2023/01/08 07:45:28;;;;;;;18.17;11.40;;;5.00;73.60;;;;;;5047200;28;20026;-64
2023/01/08 07:47:56;;;;;;;18.83;11.02;;;5.10;73.70;;;;;;5045327;28;20044;-64
2023/01/08 07:50:22;;;;;;;19.00;11.60;;;5.10;73.70;;;;;;5041245;28;20021;-64
2023/01/08 07:52:48;;;;;;;18.77;11.70;;;5.10;73.70;;;;;;5049128;28;20427;-64
2023/01/08 07:55:14;;;;;;;20.17;12.27;;;5.10;73.60;;;;;;5044485;28;20534;-64
2023/01/08 07:57:39;;;;;;;21.48;13.77;;;5.20;73.60;;;;;;5046117;28;20055;-64
2023/01/08 08:00:07;;;;;;;25.40;15.43;;;5.20;73.60;;;;;;5044978;28;20049;-64
2023/01/08 08:02:32;;;;;;;20.17;14.02;;;5.20;73.60;;;;;;5048961;28;20055;-64
2023/01/08 08:04:58;;;;;;;24.30;14.82;;;5.30;73.60;;;;;;5043147;28;20076;-64
2023/01/08 08:07:24;;;;;;;27.17;16.13;;;5.30;73.40;;;;;;5047563;28;20055;-64
2023/01/08 08:09:49;;;;;;;28.48;17.08;;;5.30;73.30;;;;;;5045808;28;20021;-64
2023/01/08 08:12:15;;;;;;;30.00;18.60;;;5.30;73.40;;;;;;5045985;28;20045;-64
2023/01/08 08:14:40;;;;;;;28.00;16.75;;;5.30;73.40;;;;;;5044703;28;20071;-64
2023/01/08 08:17:06;;;;;;;27.88;17.35;;;5.30;73.40;;;;;;5051091;28;20439;-64
2023/01/08 08:19:32;;;;;;;38.13;20.77;;;5.30;73.50;;;;;;5041026;28;20037;-64
2023/01/08 08:21:57;;;;;;;33.40;19.77;;;5.30;74.10;;;;;;5038608;28;20029;-64
2023/01/08 08:24:23;;;;;;;27.58;17.48;;;5.40;73.50;;;;;;5039189;28;20057;-64
2023/01/08 08:26:50;;;;;;;27.08;16.67;;;5.40;73.40;;;;;;5049157;28;20037;-64
2023/01/08 08:29:15;;;;;;;26.15;15.85;;;5.40;73.40;;;;;;5042203;28;20084;-64
2023/01/08 08:31:41;;;;;;;28.30;18.13;;;5.40;73.40;;;;;;5049008;28;20060;-64
2023/01/08 08:34:07;;;;;;;30.75;16.52;;;5.40;73.50;;;;;;5050833;28;20025;-64
2023/01/08 08:36:33;;;;;;;26.73;15.27;;;5.50;73.60;;;;;;5040107;28;20488;-64
2023/01/08 08:39:00;;;;;;;27.98;16.25;;;5.50;73.80;;;;;;5053391;28;20379;-64
2023/01/08 08:41:26;;;;;;;25.65;15.80;;;5.50;73.90;;;;;;5043187;28;20030;-64
2023/01/08 08:43:52;;;;;;;22.58;14.48;;;5.60;74.10;;;;;;5044829;28;20065;-64
2023/01/08 08:46:17;;;;;;;24.23;14.18;;;5.60;74.10;;;;;;5045936;28;20021;-64
2023/01/08 08:48:46;;;;;;;23.17;13.75;;;5.60;74.00;;;;;;5048704;28;20060;-65
2023/01/08 08:51:13;;;;;;;20.05;13.50;;;5.70;74.00;;;;;;5048477;28;20030;-65
2023/01/08 08:53:39;;;;;;;20.40;12.73;;;5.70;73.90;;;;;;5048099;28;20045;-64
2023/01/08 08:56:05;;;;;;;20.17;12.90;;;5.70;73.90;;;;;;5049411;28;20030;-65
2023/01/08 08:58:30;;;;;;;22.13;13.52;;;5.80;74.10;;;;;;5048535;28;20112;-64
2023/01/08 09:01:00;;;;;;;22.88;14.63;;;5.80;74.10;;;;;;5036321;28;20031;-64
2023/01/08 09:03:26;;;;;;;23.02;14.93;;;5.90;74.40;;;;;;5043582;28;20136;-64
2023/01/08 09:05:52;;;;;;;28.13;16.80;;;5.90;74.10;;;;;;5041348;28;20059;-65
2023/01/08 09:08:17;;;;;;;29.77;16.63;;;5.90;74.10;;;;;;5043140;28;20100;-64
2023/01/08 09:10:43;;;;;;;27.70;17.45;;;5.90;74.10;;;;;;5038655;28;20069;-65
2023/01/08 09:13:09;;;;;;;26.80;16.33;;;5.90;74.10;;;;;;5039701;28;20140;-65
2023/01/08 09:15:36;;;;;;;27.55;16.80;;;6.00;73.90;;;;;;5045853;28;20029;-65
2023/01/08 09:18:02;;;;;;;26.27;16.38;;;6.00;73.60;;;;;;5041614;28;20032;-64
2023/01/08 09:20:28;;;;;;;25.70;15.75;;;6.00;73.60;;;;;;5045082;28;20030;-65
2023/01/08 09:22:53;;;;;;;25.50;15.40;;;6.00;73.80;;;;;;5044661;28;20052;-64
2023/01/08 09:25:19;;;;;;;24.98;15.73;;;6.00;73.90;;;;;;5053550;28;20085;-65
2023/01/08 09:27:45;;;;;;;25.50;15.70;;;6.00;74.00;;;;;;5048900;28;20033;-65
2023/01/08 09:30:11;;;;;;;23.05;14.70;;;6.10;74.00;;;;;;5043114;28;20064;-65
2023/01/08 09:32:37;;;;;;;24.23;14.07;;;6.10;74.20;;;;;;5049292;28;20037;-64
2023/01/08 09:35:04;;;;;;;30.85;17.08;;;6.10;74.30;;;;;;5054161;28;20476;-64
2023/01/08 09:37:29;;;;;;;30.95;19.08;;;6.20;74.40;;;;;;5057967;28;20126;-65
2023/01/08 09:39:55;;;;;;;34.30;23.58;;;6.20;74.40;;;;;;5050892;28;20057;-65
2023/01/08 09:42:24;;;;;;;34.00;19.70;;;6.30;74.30;;;;;;5055145;28;20029;-65
2023/01/08 09:44:54;;;;;;;39.05;24.17;;;6.30;74.20;;;;;;5047497;28;20047;-65
2023/01/08 09:47:36;;;;;;;35.00;22.58;;;6.30;74.20;;;;;;5055651;28;20067;-64
2023/01/08 09:50:06;;;;;;;35.15;20.65;;;6.40;74.30;;;;;;5047308;28;20036;-64
2023/01/08 09:52:32;;;;;;;28.83;19.35;;;6.40;74.10;;;;;;5051347;28;20045;-65
2023/01/08 09:55:00;;;;;;;27.88;17.60;;;6.40;74.10;;;;;;5053438;28;20070;-63
2023/01/08 09:57:27;;;;;;;30.83;18.67;;;6.50;74.30;;;;;;5052085;28;20036;-64
2023/01/08 09:59:53;;;;;;;28.90;17.88;;;6.50;74.10;;;;;;5042137;28;20025;-64
2023/01/08 10:02:24;;;;;;;25.90;17.10;;;6.50;73.90;;;;;;5047466;28;20083;-65
2023/01/08 10:04:59;;;;;;;27.42;17.35;;;6.60;74.30;;;;;;5042698;28;20048;-64
2023/01/08 10:07:27;;;;;;;23.95;15.48;;;6.60;74.30;;;;;;5052891;28;20034;-65
2023/01/08 10:09:54;;;;;;;25.83;16.00;;;6.60;74.00;;;;;;5058466;28;20119;-65
2023/01/08 10:12:26;;;;;;;27.85;16.42;;;6.60;74.30;;;;;;5066720;28;20080;-64
2023/01/08 10:14:56;;;;;;;21.75;15.18;;;6.60;74.40;;;;;;5049281;28;20089;-64
2023/01/08 10:17:33;;;;;;;26.27;16.08;;;6.60;74.50;;;;;;5033865;28;20081;-64
2023/01/08 10:19:59;;;;;;;24.88;16.13;;;6.70;74.90;;;;;;4943444;28;20048;-64
2023/01/08 10:22:30;;;;;;;24.00;15.63;;;6.70;74.90;;;;;;5056453;28;20032;-64
2023/01/08 10:25:16;;;;;;;23.05;15.23;;;6.80;75.10;;;;;;5044985;28;20021;-64
2023/01/08 10:27:48;;;;;;;26.08;15.85;;;6.80;75.10;;;;;;5042409;28;20041;-64
2023/01/08 10:30:33;;;;;;;22.88;15.05;;;6.90;75.10;;;;;;5053874;28;20021;-64
2023/01/08 10:33:19;;;;;;;21.50;13.85;;;7.00;75.50;;;;;;5044520;28;20041;-65
2023/01/08 10:36:00;;;;;;;22.85;13.95;;;7.10;75.60;;;;;;5041825;28;20088;-64
2023/01/08 10:38:30;;;;;;;22.00;13.63;;;7.20;75.20;;;;;;5055632;28;20048;-65
2023/01/08 10:40:56;;;;;;;23.42;14.07;;;7.20;75.00;;;;;;5044007;28;20650;-65
2023/01/08 10:43:32;;;;;;;20.88;14.00;;;7.30;74.80;;;;;;5041776;28;20029;-65
2023/01/08 10:46:12;;;;;;;26.60;14.98;;;7.30;75.00;;;;;;5056124;28;20396;-63
2023/01/08 10:48:45;;;;;;;26.70;16.98;;;7.40;75.10;;;;;;5044588;28;20044;-65
2023/01/08 10:51:30;;;;;;;25.50;16.52;;;7.40;74.80;;;;;;5052043;28;20096;-63
2023/01/08 10:54:31;;;;;;;39.25;20.02;;;7.50;75.10;;;;;;5050873;28;20425;-63
2023/01/08 10:56:57;;;;;;;34.28;19.55;;;7.50;75.10;;;;;;5046330;28;20025;-63
2023/01/08 10:59:24;;;;;;;31.95;19.88;;;7.60;74.60;;;;;;5048355;28;20033;-64
2023/01/08 11:01:54;;;;;;;38.33;21.58;;;7.60;74.70;;;;;;5046847;28;20025;-64
2023/01/08 11:04:31;;;;;;;29.67;18.75;;;7.60;74.90;;;;;;5039671;28;20830;-64
2023/01/08 11:07:05;;;;;;;30.63;17.92;;;7.60;75.10;;;;;;5045098;28;20030;-64
2023/01/08 11:09:33;;;;;;;18.73;11.07;;;7.70;75.10;;;;;;5047502;28;20175;-64
2023/01/08 11:11:59;;;;;;;14.73;9.15;;;7.70;75.40;;;;;;5046549;28;20045;-64
2023/01/08 11:14:34;;;;;;;7.75;4.97;;;7.80;75.50;;;;;;5043426;28;20112;-65
2023/01/08 11:17:07;;;;;;;6.28;4.35;;;7.80;76.40;;;;;;5049606;28;20033;-64
2023/01/08 11:19:33;;;;;;;4.00;3.08;;;7.90;76.30;;;;;;5039758;28;20071;-64
2023/01/08 11:22:20;;;;;;;3.83;2.50;;;8.00;76.50;;;;;;5047544;28;20048;-64
2023/01/08 11:24:48;;;;;;;4.63;2.83;;;8.10;77.40;;;;;;5048797;28;20390;-65
2023/01/08 11:27:29;;;;;;;4.03;2.50;;;8.20;76.70;;;;;;5046658;28;20088;-64
2023/01/08 11:30:19;;;;;;;2.85;2.05;;;8.40;77.30;;;;;;5041699;28;20034;-64
2023/01/08 11:32:53;;;;;;;2.78;1.67;;;8.60;77.40;;;;;;5045343;28;20086;-65
2023/01/08 11:35:24;;;;;;;3.13;2.25;;;8.70;76.70;;;;;;5046406;28;20029;-64
2023/01/08 11:37:58;;;;;;;4.90;2.38;;;8.80;76.80;;;;;;5043886;28;20116;-64
2023/01/08 11:40:37;;;;;;;2.15;1.40;;;8.90;76.60;;;;;;5044949;28;20033;-64
2023/01/08 11:43:26;;;;;;;1.40;1.30;;;9.30;76.50;;;;;;5047873;28;20029;-65
2023/01/08 11:46:01;;;;;;;1.90;1.55;;;9.20;76.80;;;;;;5046794;28;20030;-64
2023/01/08 11:48:55;;;;;;;5.55;3.95;;;9.30;75.90;;;;;;5040425;28;21954;-64
2023/01/08 11:51:35;;;;;;;1.88;1.77;;;9.40;76.10;;;;;;5042481;28;20017;-64
2023/01/08 11:54:04;;;;;;;1.70;1.15;;;9.50;75.70;;;;;;5039518;28;20060;-65
2023/01/08 11:56:32;;;;;;;1.80;1.50;;;9.60;75.30;;;;;;5042612;28;20097;-64
2023/01/08 11:59:29;;;;;;;2.85;2.10;;;9.60;75.20;;;;;;5042663;28;20030;-64
2023/01/08 12:02:01;;;;;;;5.25;2.63;;;9.70;75.20;;;;;;5044859;28;20377;-64
2023/01/08 12:05:10;;;;;;;4.20;3.40;;;9.80;74.90;;;;;;5027871;28;20021;-64
2023/01/08 12:07:51;;;;;;;4.50;3.90;;;9.90;75.00;;;;;;5041445;28;20491;-64
2023/01/08 12:10:26;;;;;;;6.13;4.43;;;10.00;74.70;;;;;;5052822;28;20029;-64
2023/01/08 12:13:25;;;;;;;6.22;4.45;;;10.00;74.60;;;;;;5045941;28;20056;-64
2023/01/08 12:16:29;;;;;;;6.95;4.05;;;10.10;74.50;;;;;;5046620;28;20045;-63
2023/01/08 12:19:19;;;;;;;11.63;7.25;;;10.20;74.50;;;;;;5049845;28;20025;-65
2023/01/08 12:22:10;;;;;;;19.85;11.73;;;10.20;74.10;;;;;;5043927;28;20021;-66
2023/01/08 12:24:57;;;;;;;17.00;10.88;;;10.30;73.70;;;;;;5040470;28;20168;-66
2023/01/08 12:27:25;;;;;;;15.95;10.98;;;10.30;73.60;;;;;;5043628;28;20051;-64
2023/01/08 12:30:23;;;;;;;12.32;8.85;;;10.30;73.50;;;;;;5050275;28;20025;-64
2023/01/08 12:33:16;;;;;;;11.95;8.80;;;10.30;73.60;;;;;;5046232;28;20349;-64
2023/01/08 12:35:51;;;;;;;12.60;9.43;;;10.30;73.50;;;;;;5047016;28;20499;-66
2023/01/08 12:38:32;;;;;;;14.13;9.20;;;10.30;73.40;;;;;;5050557;28;20096;-65
2023/01/08 12:41:04;;;;;;;16.30;10.32;;;10.30;73.30;;;;;;5044274;28;20099;-65
2023/01/08 12:43:59;;;;;;;13.23;8.57;;;10.30;73.40;;;;;;5044120;28;20033;-64
2023/01/08 12:46:28;;;;;;;15.73;9.85;;;10.40;73.60;;;;;;5044166;28;20025;-65
2023/01/08 12:48:56;;;;;;;13.32;8.48;;;10.40;73.60;;;;;;5058782;28;20021;-64
2023/01/08 12:51:24;;;;;;;14.35;9.40;;;10.40;73.60;;;;;;5049819;28;20499;-65
2023/01/08 12:54:22;;;;;;;15.73;10.48;;;10.40;73.80;;;;;;5046891;28;20064;-64